Upstream stations:
Downstream station:
SHEF ID: MRIT2 Lake Meredith
STATION TYPE: RESERVOIR
Flood Pool: Bottom = 2941.30, Top = 2965.00
PRECIP ELEVATION STORAGE INFLOW RELEASE WIND-DIRWIND-SPEED
in ft ac-ft cfs cfs deg mph
Ccp-Rev Ccp-Rev Ccp-Rev Rev-Regi Rev-Regi Ccp-Rev Ccp-Rev
(US/Central)
03/18 00:00 ---- 2885.53 217578 0 0 282.00 9.00
03/18 01:00 ---- 2885.55 217717 0 0 300.00 11.00
03/18 02:00 ---- 2885.52 217509 0 0 308.00 10.00
03/18 03:00 ---- 2885.51 217439 0 0 326.00 12.00
03/18 04:00 ---- 2885.52 217509 0 0 325.00 13.00
03/18 05:00 ---- 2885.50 217370 0 0 318.00 11.00
03/18 06:00 ---- 2885.51 217439 0 0 333.00 10.00
03/18 07:00 ---- 2885.51 217439 0 0 334.00 9.00
03/18 08:00 ---- 2885.52 217509 0 0 ---- ----
03/18 09:00 ---- 2885.53 217578 0 0 ---- ----
03/18 10:00 ---- 2885.52 217509 0 0 ---- ----
03/18 11:00 ---- 2885.54 217648 0 0 ---- ----
03/18 12:00 ---- 2885.52 217509 84 0 ---- ----
03/18 13:00 ---- 2885.53 217578 168 0 ---- ----
03/18 14:00 ---- 2885.54 217648 168 0 ---- ----
03/18 15:00 ---- 2885.55 217717 168 0 ---- ----
03/18 16:00 ---- 2885.55 217717 168 0 ---- ----
03/18 17:00 ---- 2885.54 217648 84 0 ---- ----
03/18 18:00 ---- 2885.54 217648 0 0 ---- ----
03/18 19:00 ---- 2885.53 217578 0 0 ---- ----
03/18 20:00 ---- 2885.54 217648 0 0 ---- ----
03/18 21:00 ---- 2885.54 217648 0 0 ---- ----
03/18 22:00 ---- 2885.54 217648 0 0 ---- ----
03/18 23:00 ---- ---- ---- ---- ---- ---- ----